createdAt,value
2023-01-01T00:00:58.059Z,0
2023-01-01T00:03:57.228Z,0
2023-01-01T00:06:57.657Z,0
2023-01-01T00:09:57.503Z,0
2023-01-01T00:12:57.347Z,0
2023-01-01T00:15:57.885Z,0
2023-01-01T00:18:57.376Z,0
2023-01-01T00:21:57.938Z,0
2023-01-01T00:24:57.175Z,0
2023-01-01T00:27:57.262Z,0
2023-01-01T00:30:58.230Z,0
2023-01-01T00:33:57.723Z,0
2023-01-01T00:36:57.118Z,0
2023-01-01T00:39:57.508Z,0
2023-01-01T00:42:57.700Z,0
2023-01-01T00:45:57.495Z,0
2023-01-01T00:48:56.901Z,0
2023-01-01T00:51:56.827Z,0
2023-01-01T00:54:56.554Z,0
2023-01-01T00:57:57.045Z,0
2023-01-01T01:00:57.912Z,0
2023-01-01T01:03:57.424Z,0
2023-01-01T01:06:57.765Z,0
2023-01-01T01:09:58.140Z,0
2023-01-01T01:12:57.719Z,0
2023-01-01T01:15:58.081Z,0
2023-01-01T01:18:57.157Z,0
2023-01-01T01:21:57.346Z,0
2023-01-01T01:24:57.727Z,0
2023-01-01T01:27:57.256Z,0
2023-01-01T01:30:57.390Z,0
2023-01-01T01:33:57.748Z,0
2023-01-01T01:36:56.783Z,0
2023-01-01T01:39:57.557Z,0
2023-01-01T01:42:57.704Z,0
2023-01-01T01:45:58.119Z,0
2023-01-01T01:48:56.770Z,0
2023-01-01T01:51:57.731Z,0
2023-01-01T01:54:56.807Z,0
2023-01-01T01:57:57.196Z,0
2023-01-01T02:00:57.629Z,0
2023-01-01T02:03:58.404Z,0
2023-01-01T02:06:57.402Z,0
2023-01-01T02:09:57.705Z,0
2023-01-01T02:12:57.045Z,0
2023-01-01T02:15:57.320Z,0
2023-01-01T02:18:57.136Z,0
2023-01-01T02:21:57.974Z,0
2023-01-01T02:24:56.963Z,0
2023-01-01T02:27:57.150Z,0
2023-01-01T02:30:58.251Z,0
2023-01-01T02:33:57.579Z,0
2023-01-01T02:36:57.018Z,0
2023-01-01T02:39:57.602Z,0
2023-01-01T02:42:58.034Z,0
2023-01-01T02:45:57.818Z,0
2023-01-01T02:48:58.098Z,0
2023-01-01T02:51:57.278Z,0
2023-01-01T02:54:57.233Z,0
2023-01-01T02:57:58.108Z,0
2023-01-01T03:00:57.778Z,0
2023-01-01T03:03:56.922Z,0
2023-01-01T03:06:57.128Z,0
2023-01-01T03:09:57.517Z,0
2023-01-01T03:12:58.352Z,0
2023-01-01T03:15:57.805Z,0
2023-01-01T03:18:56.889Z,0
2023-01-01T03:21:57.432Z,0
2023-01-01T03:24:57.723Z,0
2023-01-01T03:27:57.402Z,0
2023-01-01T03:30:57.699Z,0
2023-01-01T03:33:57.332Z,0
2023-01-01T03:36:57.568Z,0
2023-01-01T03:39:57.044Z,0
2023-01-01T03:42:57.425Z,0
2023-01-01T03:45:57.536Z,0
2023-01-01T03:49:03.012Z,0
2023-01-01T03:51:57.120Z,0
2023-01-01T03:54:59.334Z,0
2023-01-01T03:57:57.669Z,0
2023-01-01T04:00:57.257Z,0
2023-01-01T04:03:57.225Z,0
2023-01-01T04:06:57.411Z,0
2023-01-01T04:09:57.089Z,0
2023-01-01T04:12:57.222Z,0
2023-01-01T04:15:58.409Z,0
2023-01-01T04:18:57.646Z,0
2023-01-01T04:21:57.079Z,0
2023-01-01T04:24:59.700Z,0
2023-01-01T04:27:57.243Z,0
2023-01-01T04:33:57.380Z,0
2023-01-01T04:36:57.030Z,0
2023-01-01T04:39:57.362Z,0
2023-01-01T04:42:57.686Z,0
2023-01-01T04:45:57.268Z,0
2023-01-01T04:48:57.025Z,0
2023-01-01T04:51:57.280Z,0
2023-01-01T04:54:57.058Z,0
2023-01-01T04:57:57.585Z,0
2023-01-01T05:00:58.091Z,0
2023-01-01T05:03:58.135Z,0
2023-01-01T05:06:57.436Z,0
2023-01-01T05:09:57.862Z,0
2023-01-01T05:12:57.426Z,0
2023-01-01T05:15:57.125Z,0
2023-01-01T05:18:57.148Z,0
2023-01-01T05:21:57.103Z,0
2023-01-01T05:24:57.438Z,0
2023-01-01T05:27:57.781Z,0
2023-01-01T05:30:57.532Z,0
2023-01-01T05:33:57.051Z,0
2023-01-01T05:36:57.795Z,0
2023-01-01T05:39:57.383Z,0
2023-01-01T05:42:57.357Z,0
2023-01-01T05:45:58.257Z,0
2023-01-01T05:48:57.521Z,0
2023-01-01T05:51:57.542Z,0
2023-01-01T05:54:56.842Z,0
2023-01-01T05:57:56.638Z,0
2023-01-01T06:00:57.212Z,0
2023-01-01T06:03:57.236Z,0
2023-01-01T06:06:57.319Z,0
2023-01-01T06:09:57.180Z,0
2023-01-01T06:12:57.860Z,0
2023-01-01T06:15:57.946Z,0
2023-01-01T06:18:57.918Z,0
2023-01-01T06:21:57.134Z,0
2023-01-01T06:24:57.010Z,0
2023-01-01T06:27:57.476Z,0
2023-01-01T06:30:57.088Z,0
2023-01-01T06:33:57.644Z,0
2023-01-01T06:37:01.453Z,0
2023-01-01T06:39:57.391Z,0
2023-01-01T06:42:57.422Z,0
2023-01-01T06:45:57.843Z,0
2023-01-01T06:48:56.822Z,0
2023-01-01T06:51:57.088Z,1.3333333333333333
2023-01-01T06:54:57.455Z,3
2023-01-01T06:57:57.673Z,3
2023-01-01T07:01:01.204Z,3.6666666666666665
2023-01-01T07:03:58.028Z,6
2023-01-01T07:06:57.803Z,9
2023-01-01T07:09:57.948Z,15
2023-01-01T07:12:57.620Z,25
2023-01-01T07:15:57.363Z,32
2023-01-01T07:18:57.831Z,38.666666666666664
2023-01-01T07:21:57.136Z,50.333333333333336
2023-01-01T07:24:57.370Z,61.666666666666664
2023-01-01T07:27:58.014Z,73.33333333333333
2023-01-01T07:30:57.894Z,86.33333333333333
2023-01-01T07:33:57.989Z,98
2023-01-01T07:36:57.516Z,108.33333333333333
2023-01-01T07:39:57.871Z,119
2023-01-01T07:42:57.777Z,127
2023-01-01T07:45:57.650Z,133.66666666666666
2023-01-01T07:48:57.990Z,138.33333333333334
2023-01-01T07:51:57.522Z,147
2023-01-01T07:54:57.047Z,162
2023-01-01T07:57:57.600Z,176.66666666666666
2023-01-01T08:00:57.852Z,187
2023-01-01T08:03:57.487Z,196.66666666666666
2023-01-01T08:06:57.676Z,206
2023-01-01T08:09:57.741Z,214.66666666666666
2023-01-01T08:12:57.475Z,217
2023-01-01T08:15:57.776Z,219.66666666666666
2023-01-01T08:18:57.132Z,230
2023-01-01T08:21:57.590Z,230.33333333333334
2023-01-01T08:24:57.226Z,232.33333333333334
2023-01-01T08:27:57.685Z,237
2023-01-01T08:30:57.703Z,232.66666666666666
2023-01-01T08:33:57.120Z,230.33333333333334
2023-01-01T08:36:57.311Z,224.66666666666666
2023-01-01T08:39:57.106Z,216
2023-01-01T08:42:57.751Z,206
2023-01-01T08:45:57.207Z,205
2023-01-01T08:48:57.050Z,207
2023-01-01T08:51:57.772Z,213
2023-01-01T08:54:58.118Z,224
2023-01-01T08:57:57.043Z,230.33333333333334
2023-01-01T09:00:57.978Z,236
2023-01-01T09:03:57.444Z,244
2023-01-01T09:06:57.707Z,254
2023-01-01T09:09:58.065Z,266.3333333333333
2023-01-01T09:12:57.916Z,275
2023-01-01T09:15:57.910Z,288
2023-01-01T09:18:57.766Z,297.6666666666667
2023-01-01T09:21:57.103Z,310
2023-01-01T09:24:58.068Z,321.6666666666667
2023-01-01T09:27:57.456Z,331
2023-01-01T09:30:58.007Z,349
2023-01-01T09:33:57.366Z,361
2023-01-01T09:36:57.972Z,392.3333333333333
2023-01-01T09:39:57.033Z,394
2023-01-01T09:42:57.777Z,382.6666666666667
2023-01-01T09:45:57.541Z,380
2023-01-01T09:48:57.292Z,351
2023-01-01T09:51:58.076Z,350
2023-01-01T09:54:56.983Z,349.3333333333333
2023-01-01T09:57:57.809Z,352.6666666666667
2023-01-01T10:00:57.879Z,363
2023-01-01T10:04:02.408Z,373
2023-01-01T10:06:57.869Z,363
2023-01-01T10:09:58.319Z,368.3333333333333
2023-01-01T10:12:57.003Z,399.3333333333333
2023-01-01T10:15:57.763Z,415
2023-01-01T10:18:57.588Z,418
2023-01-01T10:21:57.079Z,422
2023-01-01T10:24:57.565Z,427.3333333333333
2023-01-01T10:27:59.706Z,423
2023-01-01T10:30:57.862Z,418
2023-01-01T10:33:57.452Z,412
2023-01-01T10:36:57.854Z,409.3333333333333
2023-01-01T10:39:57.463Z,404
2023-01-01T10:42:57.745Z,401
2023-01-01T10:45:57.819Z,400
2023-01-01T10:48:57.352Z,399.6666666666667
2023-01-01T10:51:57.207Z,406.6666666666667
2023-01-01T10:54:58.042Z,415
2023-01-01T10:57:57.723Z,430.6666666666667
2023-01-01T11:00:57.901Z,437
2023-01-01T11:04:15.770Z,453.3333333333333
2023-01-01T11:06:57.624Z,458.6666666666667
2023-01-01T11:10:03.520Z,463.3333333333333
2023-01-01T11:13:05.688Z,466.6666666666667
2023-01-01T11:15:57.041Z,488
2023-01-01T11:18:57.947Z,504
2023-01-01T11:21:58.041Z,509
2023-01-01T11:24:57.839Z,505
2023-01-01T11:27:56.844Z,511
2023-01-01T11:30:57.832Z,518
2023-01-01T11:33:57.003Z,532
2023-01-01T11:36:58.172Z,562
2023-01-01T11:39:57.592Z,567
2023-01-01T11:42:58.261Z,567
2023-01-01T11:45:59.047Z,568.6666666666666
2023-01-01T11:48:57.497Z,577.6666666666666
2023-01-01T11:51:57.488Z,579
2023-01-01T11:54:57.735Z,583.3333333333334
2023-01-01T11:57:57.396Z,574
2023-01-01T12:00:58.362Z,568
2023-01-01T12:03:57.713Z,550
2023-01-01T12:06:57.526Z,566.3333333333334
2023-01-01T12:09:57.525Z,576.3333333333334
2023-01-01T12:12:58.173Z,571.3333333333334
2023-01-01T12:15:57.998Z,570
2023-01-01T12:18:57.931Z,572
2023-01-01T12:21:58.198Z,555.6666666666666
2023-01-01T12:24:57.034Z,557
2023-01-01T12:27:57.556Z,548
2023-01-01T12:30:57.326Z,550.6666666666666
2023-01-01T12:33:57.496Z,527.6666666666666
2023-01-01T12:36:57.319Z,540
2023-01-01T12:39:57.625Z,532
2023-01-01T12:42:57.691Z,537.6666666666666
2023-01-01T12:45:58.436Z,553
2023-01-01T12:48:57.901Z,558
2023-01-01T12:51:57.824Z,559
2023-01-01T12:54:57.079Z,555.3333333333334
2023-01-01T12:57:57.414Z,574
2023-01-01T13:00:57.940Z,564
2023-01-01T13:03:57.724Z,549
2023-01-01T13:06:56.964Z,536
2023-01-01T13:09:57.897Z,540
2023-01-01T13:12:57.407Z,518
2023-01-01T13:15:57.079Z,492.6666666666667
2023-01-01T13:19:02.660Z,474.3333333333333
2023-01-01T13:21:58.080Z,453
2023-01-01T13:24:58.309Z,434.6666666666667
2023-01-01T13:27:58.162Z,416
2023-01-01T13:30:57.578Z,414
2023-01-01T13:33:57.392Z,406.3333333333333
2023-01-01T13:36:57.533Z,387.3333333333333
2023-01-01T13:39:58.312Z,370.3333333333333
2023-01-01T13:43:02.324Z,360
2023-01-01T13:46:12.932Z,357
2023-01-01T13:49:01.336Z,360
2023-01-01T13:52:06.019Z,350.3333333333333
2023-01-01T13:54:57.455Z,341
2023-01-01T13:57:57.601Z,330
2023-01-01T14:00:57.409Z,324
2023-01-01T14:03:57.652Z,320.6666666666667
2023-01-01T14:06:57.117Z,312.6666666666667
2023-01-01T14:09:57.562Z,302.6666666666667
2023-01-01T14:12:57.813Z,290.6666666666667
2023-01-01T14:15:57.575Z,286.6666666666667
2023-01-01T14:18:57.058Z,277.6666666666667
2023-01-01T14:21:57.925Z,264
2023-01-01T14:24:57.907Z,248
2023-01-01T14:27:58.644Z,230
2023-01-01T14:30:57.263Z,209
2023-01-01T14:33:57.536Z,192.66666666666666
2023-01-01T14:36:57.507Z,181.33333333333334
2023-01-01T14:39:58.138Z,169
2023-01-01T14:42:57.608Z,156
2023-01-01T14:45:58.054Z,145.66666666666666
2023-01-01T14:48:57.315Z,136.33333333333334
2023-01-01T14:51:57.283Z,127.33333333333333
2023-01-01T14:54:57.241Z,120
2023-01-01T14:57:58.340Z,113
2023-01-01T15:00:58.241Z,104
2023-01-01T15:03:56.975Z,93
2023-01-01T15:06:57.627Z,81
2023-01-01T15:09:57.781Z,68.66666666666667
2023-01-01T15:12:56.661Z,60
2023-01-01T15:15:57.781Z,50.333333333333336
2023-01-01T15:18:57.557Z,40.333333333333336
2023-01-01T15:21:57.656Z,32
2023-01-01T15:24:57.626Z,25.333333333333332
2023-01-01T15:27:57.481Z,20
2023-01-01T15:30:57.686Z,15.333333333333334
2023-01-01T15:33:57.636Z,12.666666666666666
2023-01-01T15:36:57.945Z,12
2023-01-01T15:39:58.349Z,11.333333333333334
2023-01-01T15:42:57.028Z,10
2023-01-01T15:45:57.982Z,4
2023-01-01T15:48:58.208Z,1
2023-01-01T15:51:57.327Z,0.6666666666666666
2023-01-01T15:54:57.300Z,0
2023-01-01T15:57:57.695Z,0
2023-01-01T16:00:58.486Z,0
2023-01-01T16:03:58.024Z,0
2023-01-01T16:06:57.454Z,0
2023-01-01T16:09:58.306Z,0
2023-01-01T16:12:57.574Z,0
2023-01-01T16:15:57.547Z,0
2023-01-01T16:18:56.809Z,0
2023-01-01T16:21:57.631Z,0
2023-01-01T16:24:57.857Z,0
2023-01-01T16:27:56.675Z,0
2023-01-01T16:30:57.351Z,0
2023-01-01T16:33:58.189Z,0
2023-01-01T16:36:57.472Z,0
2023-01-01T16:39:57.860Z,0
2023-01-01T16:42:57.403Z,0
2023-01-01T16:45:57.746Z,0
2023-01-01T16:48:57.356Z,0
2023-01-01T16:51:57.059Z,0
2023-01-01T16:54:57.466Z,0
2023-01-01T16:58:20.998Z,0
2023-01-01T17:00:57.717Z,0
2023-01-01T17:03:57.457Z,0
2023-01-01T17:06:57.774Z,0
2023-01-01T17:09:58.052Z,0
2023-01-01T17:12:57.895Z,0
2023-01-01T17:15:57.766Z,0
2023-01-01T17:19:16.685Z,0
2023-01-01T17:21:57.203Z,0
2023-01-01T17:24:57.684Z,0
2023-01-01T17:27:57.834Z,0
2023-01-01T17:30:57.383Z,0
2023-01-01T17:33:57.738Z,0
2023-01-01T17:36:57.404Z,0
2023-01-01T17:39:58.355Z,0
2023-01-01T17:42:57.175Z,0
2023-01-01T17:45:58.578Z,0
2023-01-01T17:48:56.795Z,0
2023-01-01T17:51:58.147Z,0
2023-01-01T17:54:58.111Z,0
2023-01-01T17:57:57.542Z,0
2023-01-01T18:00:58.359Z,0
2023-01-01T18:03:57.336Z,0
2023-01-01T18:07:02.452Z,0
2023-01-01T18:09:57.533Z,0
2023-01-01T18:12:57.188Z,0
2023-01-01T18:15:57.543Z,0
2023-01-01T18:18:57.170Z,0
2023-01-01T18:21:57.969Z,0
2023-01-01T18:24:58.505Z,0
2023-01-01T18:27:57.965Z,0
2023-01-01T18:30:58.068Z,0
2023-01-01T18:33:57.421Z,0
2023-01-01T18:36:57.450Z,0
2023-01-01T18:39:58.802Z,0
2023-01-01T18:42:57.522Z,0
2023-01-01T18:45:57.321Z,0
2023-01-01T18:48:59.334Z,0
2023-01-01T18:51:57.146Z,0
2023-01-01T18:54:57.757Z,0
2023-01-01T18:57:58.603Z,0
2023-01-01T19:01:25.955Z,0
2023-01-01T19:03:56.937Z,0
2023-01-01T19:06:57.530Z,0
2023-01-01T19:09:59.159Z,0
2023-01-01T19:12:57.162Z,0
2023-01-01T19:15:57.263Z,0
2023-01-01T19:18:57.871Z,0
2023-01-01T19:21:57.311Z,0
2023-01-01T19:24:58.196Z,0
2023-01-01T19:27:57.907Z,0
2023-01-01T19:30:57.810Z,0
2023-01-01T19:33:58.084Z,0
2023-01-01T19:36:57.455Z,0.3333333333333333
2023-01-01T19:39:58.086Z,0
2023-01-01T19:42:57.817Z,0
2023-01-01T19:45:57.604Z,0
2023-01-01T19:48:57.689Z,0
2023-01-01T19:51:57.560Z,0
2023-01-01T19:54:57.790Z,0
2023-01-01T19:57:57.690Z,0
2023-01-01T20:00:58.261Z,0
2023-01-01T20:03:58.305Z,0
2023-01-01T20:06:57.749Z,0
2023-01-01T20:09:57.589Z,0
2023-01-01T20:12:57.562Z,0
2023-01-01T20:15:57.605Z,0
2023-01-01T20:18:57.420Z,0
2023-01-01T20:21:57.143Z,0
2023-01-01T20:24:58.160Z,0
2023-01-01T20:27:57.177Z,0
2023-01-01T20:30:58.026Z,0
2023-01-01T20:33:57.733Z,0
2023-01-01T20:36:57.815Z,0
2023-01-01T20:39:57.677Z,0
2023-01-01T20:42:57.204Z,0
2023-01-01T20:45:57.698Z,0
2023-01-01T20:48:57.849Z,0
2023-01-01T20:51:57.545Z,0
2023-01-01T20:54:58.008Z,0
2023-01-01T20:57:57.806Z,0
2023-01-01T21:00:57.983Z,0
2023-01-01T21:03:57.327Z,0
2023-01-01T21:06:57.779Z,0
2023-01-01T21:09:58.110Z,0
2023-01-01T21:12:57.442Z,0
2023-01-01T21:15:58.243Z,0
2023-01-01T21:18:57.724Z,0
2023-01-01T21:21:57.261Z,0
2023-01-01T21:25:16.901Z,0
2023-01-01T21:27:57.602Z,0
2023-01-01T21:30:57.393Z,0
2023-01-01T21:33:57.402Z,0
2023-01-01T21:36:57.417Z,0
2023-01-01T21:39:58.035Z,0
2023-01-01T21:42:57.414Z,0
2023-01-01T21:45:57.836Z,0
2023-01-01T21:48:58.117Z,0
2023-01-01T21:51:57.357Z,0
2023-01-01T21:54:57.330Z,0
2023-01-01T21:57:57.215Z,0
2023-01-01T22:00:57.376Z,0
2023-01-01T22:03:57.780Z,0
2023-01-01T22:06:57.362Z,0
2023-01-01T22:09:57.351Z,0
2023-01-01T22:12:56.959Z,0
2023-01-01T22:15:57.524Z,0
2023-01-01T22:18:56.974Z,0
2023-01-01T22:21:57.802Z,0
2023-01-01T22:24:58.168Z,0
2023-01-01T22:27:57.223Z,0
2023-01-01T22:30:58.313Z,0
2023-01-01T22:33:58.143Z,0
2023-01-01T22:36:57.860Z,0
2023-01-01T22:39:57.137Z,0
2023-01-01T22:42:57.569Z,0.3333333333333333
2023-01-01T22:45:58.112Z,0
2023-01-01T22:48:58.206Z,0
2023-01-01T22:51:57.428Z,0
2023-01-01T22:54:57.798Z,0
2023-01-01T22:57:57.299Z,0
2023-01-01T23:00:57.585Z,0
2023-01-01T23:03:57.278Z,0
2023-01-01T23:06:56.668Z,0
2023-01-01T23:09:57.075Z,0
2023-01-01T23:12:57.465Z,0
2023-01-01T23:15:58.139Z,0
2023-01-01T23:18:57.170Z,0
2023-01-01T23:21:57.575Z,0
2023-01-01T23:24:57.286Z,0
2023-01-01T23:27:57.712Z,0
2023-01-01T23:30:57.384Z,0
2023-01-01T23:33:56.716Z,0
2023-01-01T23:36:56.964Z,0
2023-01-01T23:39:57.494Z,0
2023-01-01T23:42:57.714Z,0
2023-01-01T23:45:57.017Z,0
2023-01-01T23:48:56.979Z,0
2023-01-01T23:51:57.178Z,0
2023-01-01T23:54:57.229Z,0
2023-01-01T23:57:57.067Z,0
